sensor_id;sensor_type;location;lat;lon;timestamp;P1;durP1;ratioP1;P2;durP2;ratioP2
64387;SDS011;50709;52.648;4.764;2023-02-11T00:01:28;12.23;;;4.82;;
64387;SDS011;50709;52.648;4.764;2023-02-11T00:03:56;16.77;;;5.00;;
64387;SDS011;50709;52.648;4.764;2023-02-11T00:06:23;10.75;;;4.78;;
64387;SDS011;50709;52.648;4.764;2023-02-11T00:08:50;13.43;;;4.75;;
64387;SDS011;50709;52.648;4.764;2023-02-11T00:11:17;12.25;;;4.40;;
64387;SDS011;50709;52.648;4.764;2023-02-11T00:13:44;12.75;;;4.60;;
64387;SDS011;50709;52.648;4.764;2023-02-11T00:16:12;12.30;;;4.40;;
64387;SDS011;50709;52.648;4.764;2023-02-11T00:18:39;12.65;;;5.40;;
64387;SDS011;50709;52.648;4.764;2023-02-11T00:21:08;14.07;;;4.80;;
64387;SDS011;50709;52.648;4.764;2023-02-11T00:23:35;11.38;;;4.40;;
64387;SDS011;50709;52.648;4.764;2023-02-11T00:26:01;12.73;;;5.40;;
64387;SDS011;50709;52.648;4.764;2023-02-11T00:28:26;12.45;;;5.15;;
64387;SDS011;50709;52.648;4.764;2023-02-11T00:30:55;14.60;;;5.18;;
64387;SDS011;50709;52.648;4.764;2023-02-11T00:33:21;15.82;;;5.72;;
64387;SDS011;50709;52.648;4.764;2023-02-11T00:35:47;12.05;;;4.68;;
64387;SDS011;50709;52.648;4.764;2023-02-11T00:38:12;12.70;;;4.57;;
64387;SDS011;50709;52.648;4.764;2023-02-11T00:40:37;9.63;;;4.40;;
64387;SDS011;50709;52.648;4.764;2023-02-11T00:43:03;11.45;;;5.10;;
64387;SDS011;50709;52.648;4.764;2023-02-11T00:45:28;12.00;;;4.90;;
64387;SDS011;50709;52.648;4.764;2023-02-11T00:47:54;12.50;;;5.28;;
64387;SDS011;50709;52.648;4.764;2023-02-11T00:50:21;11.10;;;4.53;;
64387;SDS011;50709;52.648;4.764;2023-02-11T00:52:47;17.27;;;5.75;;
64387;SDS011;50709;52.648;4.764;2023-02-11T00:55:12;12.77;;;5.53;;
64387;SDS011;50709;52.648;4.764;2023-02-11T00:57:38;14.82;;;6.05;;
64387;SDS011;50709;52.648;4.764;2023-02-11T01:00:05;15.55;;;5.68;;
64387;SDS011;50709;52.648;4.764;2023-02-11T01:02:31;13.18;;;5.53;;
64387;SDS011;50709;52.648;4.764;2023-02-11T01:04:57;12.88;;;5.18;;
64387;SDS011;50709;52.648;4.764;2023-02-11T01:07:23;15.23;;;7.05;;
64387;SDS011;50709;52.648;4.764;2023-02-11T01:09:49;9.52;;;5.30;;
64387;SDS011;50709;52.648;4.764;2023-02-11T01:12:14;15.88;;;6.07;;
64387;SDS011;50709;52.648;4.764;2023-02-11T01:14:40;16.67;;;5.60;;
64387;SDS011;50709;52.648;4.764;2023-02-11T01:17:05;13.90;;;6.15;;
64387;SDS011;50709;52.648;4.764;2023-02-11T01:19:31;14.07;;;5.97;;
64387;SDS011;50709;52.648;4.764;2023-02-11T01:21:56;12.40;;;6.30;;
64387;SDS011;50709;52.648;4.764;2023-02-11T01:24:21;17.40;;;7.55;;
64387;SDS011;50709;52.648;4.764;2023-02-11T01:26:47;16.73;;;6.22;;
64387;SDS011;50709;52.648;4.764;2023-02-11T01:29:12;15.07;;;6.45;;
64387;SDS011;50709;52.648;4.764;2023-02-11T01:31:37;12.13;;;5.60;;
64387;SDS011;50709;52.648;4.764;2023-02-11T01:34:03;18.00;;;7.47;;
64387;SDS011;50709;52.648;4.764;2023-02-11T01:36:28;16.33;;;6.13;;
64387;SDS011;50709;52.648;4.764;2023-02-11T01:38:54;18.40;;;7.13;;
64387;SDS011;50709;52.648;4.764;2023-02-11T01:41:19;20.35;;;7.07;;
64387;SDS011;50709;52.648;4.764;2023-02-11T01:43:46;14.75;;;6.70;;
64387;SDS011;50709;52.648;4.764;2023-02-11T01:48:45;16.52;;;7.60;;
64387;SDS011;50709;52.648;4.764;2023-02-11T01:51:16;13.07;;;5.95;;
64387;SDS011;50709;52.648;4.764;2023-02-11T01:53:45;19.13;;;6.97;;
64387;SDS011;50709;52.648;4.764;2023-02-11T01:56:31;16.17;;;7.57;;
64387;SDS011;50709;52.648;4.764;2023-02-11T01:59:21;12.50;;;5.47;;
64387;SDS011;50709;52.648;4.764;2023-02-11T02:01:52;14.50;;;7.50;;
64387;SDS011;50709;52.648;4.764;2023-02-11T02:04:24;16.13;;;7.40;;
64387;SDS011;50709;52.648;4.764;2023-02-11T02:06:58;19.83;;;7.43;;
64387;SDS011;50709;52.648;4.764;2023-02-11T02:09:31;15.60;;;7.45;;
64387;SDS011;50709;52.648;4.764;2023-02-11T02:12:05;19.13;;;7.22;;
64387;SDS011;50709;52.648;4.764;2023-02-11T02:14:30;16.70;;;6.93;;
64387;SDS011;50709;52.648;4.764;2023-02-11T02:16:56;17.77;;;6.95;;
64387;SDS011;50709;52.648;4.764;2023-02-11T02:25:13;18.48;;;7.93;;
64387;SDS011;50709;52.648;4.764;2023-02-11T02:28:18;19.17;;;7.45;;
64387;SDS011;50709;52.648;4.764;2023-02-11T02:33:59;18.98;;;7.88;;
64387;SDS011;50709;52.648;4.764;2023-02-11T02:36:36;16.58;;;7.78;;
64387;SDS011;50709;52.648;4.764;2023-02-11T02:39:23;16.40;;;7.13;;
64387;SDS011;50709;52.648;4.764;2023-02-11T02:41:55;20.95;;;7.93;;
64387;SDS011;50709;52.648;4.764;2023-02-11T02:44:21;13.85;;;7.40;;
64387;SDS011;50709;52.648;4.764;2023-02-11T02:46:48;22.08;;;8.35;;
64387;SDS011;50709;52.648;4.764;2023-02-11T02:49:14;19.33;;;8.65;;
64387;SDS011;50709;52.648;4.764;2023-02-11T03:00:24;18.70;;;8.38;;
64387;SDS011;50709;52.648;4.764;2023-02-11T03:08:26;21.50;;;9.55;;
64387;SDS011;50709;52.648;4.764;2023-02-11T03:10:56;17.67;;;9.13;;
64387;SDS011;50709;52.648;4.764;2023-02-11T03:13:25;18.92;;;9.30;;
64387;SDS011;50709;52.648;4.764;2023-02-11T03:15:56;21.60;;;9.73;;
64387;SDS011;50709;52.648;4.764;2023-02-11T03:18:26;22.05;;;9.18;;
64387;SDS011;50709;52.648;4.764;2023-02-11T03:20:53;19.75;;;8.57;;
64387;SDS011;50709;52.648;4.764;2023-02-11T03:25:51;18.85;;;8.73;;
64387;SDS011;50709;52.648;4.764;2023-02-11T03:28:31;20.20;;;9.88;;
64387;SDS011;50709;52.648;4.764;2023-02-11T03:37:44;20.70;;;9.88;;
64387;SDS011;50709;52.648;4.764;2023-02-11T03:40:43;19.90;;;8.35;;
64387;SDS011;50709;52.648;4.764;2023-02-11T03:43:25;16.30;;;8.40;;
64387;SDS011;50709;52.648;4.764;2023-02-11T03:45:55;23.23;;;10.30;;
64387;SDS011;50709;52.648;4.764;2023-02-11T03:48:29;23.80;;;9.77;;
64387;SDS011;50709;52.648;4.764;2023-02-11T03:50:57;17.63;;;7.47;;
64387;SDS011;50709;52.648;4.764;2023-02-11T03:53:24;20.27;;;9.05;;
64387;SDS011;50709;52.648;4.764;2023-02-11T03:55:50;19.48;;;8.90;;
64387;SDS011;50709;52.648;4.764;2023-02-11T03:58:18;18.83;;;8.77;;
64387;SDS011;50709;52.648;4.764;2023-02-11T04:00:43;17.77;;;9.15;;
64387;SDS011;50709;52.648;4.764;2023-02-11T04:03:09;20.55;;;9.85;;
64387;SDS011;50709;52.648;4.764;2023-02-11T04:05:35;21.92;;;9.52;;
64387;SDS011;50709;52.648;4.764;2023-02-11T04:08:02;21.55;;;9.98;;
64387;SDS011;50709;52.648;4.764;2023-02-11T04:10:27;20.95;;;9.52;;
64387;SDS011;50709;52.648;4.764;2023-02-11T04:12:53;20.67;;;8.77;;
64387;SDS011;50709;52.648;4.764;2023-02-11T04:15:18;20.60;;;8.88;;
64387;SDS011;50709;52.648;4.764;2023-02-11T04:17:44;23.48;;;9.25;;
64387;SDS011;50709;52.648;4.764;2023-02-11T04:20:10;19.60;;;8.40;;
64387;SDS011;50709;52.648;4.764;2023-02-11T04:22:35;23.75;;;9.98;;
64387;SDS011;50709;52.648;4.764;2023-02-11T04:25:02;23.50;;;9.80;;
64387;SDS011;50709;52.648;4.764;2023-02-11T04:27:28;17.73;;;8.65;;
64387;SDS011;50709;52.648;4.764;2023-02-11T04:29:53;19.13;;;8.02;;
64387;SDS011;50709;52.648;4.764;2023-02-11T04:32:18;18.80;;;9.05;;
64387;SDS011;50709;52.648;4.764;2023-02-11T04:34:44;21.63;;;9.63;;
64387;SDS011;50709;52.648;4.764;2023-02-11T04:37:09;18.02;;;8.50;;
64387;SDS011;50709;52.648;4.764;2023-02-11T04:39:35;19.67;;;8.48;;
64387;SDS011;50709;52.648;4.764;2023-02-11T04:42:00;20.83;;;9.10;;
64387;SDS011;50709;52.648;4.764;2023-02-11T04:44:25;21.67;;;9.32;;
64387;SDS011;50709;52.648;4.764;2023-02-11T04:46:51;23.00;;;10.20;;
64387;SDS011;50709;52.648;4.764;2023-02-11T04:49:17;22.42;;;9.73;;
64387;SDS011;50709;52.648;4.764;2023-02-11T04:51:42;21.13;;;9.02;;
64387;SDS011;50709;52.648;4.764;2023-02-11T04:54:11;15.10;;;8.30;;
64387;SDS011;50709;52.648;4.764;2023-02-11T04:56:37;17.40;;;8.60;;
64387;SDS011;50709;52.648;4.764;2023-02-11T04:59:03;24.50;;;9.30;;
64387;SDS011;50709;52.648;4.764;2023-02-11T05:01:30;20.23;;;8.55;;
64387;SDS011;50709;52.648;4.764;2023-02-11T05:03:56;20.10;;;9.73;;
64387;SDS011;50709;52.648;4.764;2023-02-11T05:06:22;21.60;;;8.95;;
64387;SDS011;50709;52.648;4.764;2023-02-11T05:08:48;21.98;;;9.40;;
64387;SDS011;50709;52.648;4.764;2023-02-11T05:11:15;23.15;;;9.90;;
64387;SDS011;50709;52.648;4.764;2023-02-11T05:13:42;24.83;;;10.60;;
64387;SDS011;50709;52.648;4.764;2023-02-11T05:16:08;28.58;;;9.95;;
64387;SDS011;50709;52.648;4.764;2023-02-11T05:18:36;20.67;;;9.93;;
64387;SDS011;50709;52.648;4.764;2023-02-11T05:21:06;21.92;;;9.45;;
64387;SDS011;50709;52.648;4.764;2023-02-11T05:23:32;35.72;;;10.65;;
64387;SDS011;50709;52.648;4.764;2023-02-11T05:25:58;21.42;;;9.32;;
64387;SDS011;50709;52.648;4.764;2023-02-11T05:28:23;22.23;;;9.98;;
64387;SDS011;50709;52.648;4.764;2023-02-11T05:30:49;24.42;;;10.32;;
64387;SDS011;50709;52.648;4.764;2023-02-11T05:33:14;22.75;;;9.95;;
64387;SDS011;50709;52.648;4.764;2023-02-11T05:35:39;26.52;;;10.48;;
64387;SDS011;50709;52.648;4.764;2023-02-11T05:38:05;22.33;;;9.10;;
64387;SDS011;50709;52.648;4.764;2023-02-11T05:40:30;21.65;;;9.32;;
64387;SDS011;50709;52.648;4.764;2023-02-11T05:42:56;20.58;;;10.15;;
64387;SDS011;50709;52.648;4.764;2023-02-11T05:45:21;22.95;;;10.00;;
64387;SDS011;50709;52.648;4.764;2023-02-11T05:47:47;23.73;;;10.02;;
64387;SDS011;50709;52.648;4.764;2023-02-11T05:50:12;20.48;;;9.25;;
64387;SDS011;50709;52.648;4.764;2023-02-11T05:52:38;26.45;;;10.20;;
64387;SDS011;50709;52.648;4.764;2023-02-11T05:55:03;23.23;;;10.35;;
64387;SDS011;50709;52.648;4.764;2023-02-11T05:57:29;22.65;;;10.18;;
64387;SDS011;50709;52.648;4.764;2023-02-11T05:59:54;21.15;;;10.05;;
64387;SDS011;50709;52.648;4.764;2023-02-11T06:02:20;25.45;;;10.00;;
64387;SDS011;50709;52.648;4.764;2023-02-11T06:04:45;22.67;;;10.43;;
64387;SDS011;50709;52.648;4.764;2023-02-11T06:07:10;20.38;;;8.80;;
64387;SDS011;50709;52.648;4.764;2023-02-11T06:09:36;22.58;;;9.88;;
64387;SDS011;50709;52.648;4.764;2023-02-11T06:12:01;20.30;;;9.13;;
64387;SDS011;50709;52.648;4.764;2023-02-11T06:14:27;22.10;;;9.65;;
64387;SDS011;50709;52.648;4.764;2023-02-11T06:16:52;21.55;;;9.40;;
64387;SDS011;50709;52.648;4.764;2023-02-11T06:19:18;21.17;;;9.38;;
64387;SDS011;50709;52.648;4.764;2023-02-11T06:21:43;19.50;;;8.98;;
64387;SDS011;50709;52.648;4.764;2023-02-11T06:24:09;24.95;;;11.13;;
64387;SDS011;50709;52.648;4.764;2023-02-11T06:26:34;19.10;;;9.43;;
64387;SDS011;50709;52.648;4.764;2023-02-11T06:29:00;17.92;;;9.13;;
64387;SDS011;50709;52.648;4.764;2023-02-11T06:31:26;20.13;;;9.30;;
64387;SDS011;50709;52.648;4.764;2023-02-11T06:33:51;22.40;;;9.98;;
64387;SDS011;50709;52.648;4.764;2023-02-11T06:36:19;18.88;;;9.95;;
64387;SDS011;50709;52.648;4.764;2023-02-11T06:38:46;21.60;;;9.52;;
64387;SDS011;50709;52.648;4.764;2023-02-11T06:41:13;23.20;;;9.50;;
64387;SDS011;50709;52.648;4.764;2023-02-11T06:43:40;27.55;;;10.35;;
64387;SDS011;50709;52.648;4.764;2023-02-11T06:46:07;23.67;;;9.75;;
64387;SDS011;50709;52.648;4.764;2023-02-11T06:48:33;23.48;;;10.00;;
64387;SDS011;50709;52.648;4.764;2023-02-11T06:51:02;20.98;;;9.02;;
64387;SDS011;50709;52.648;4.764;2023-02-11T06:53:30;18.33;;;9.07;;
64387;SDS011;50709;52.648;4.764;2023-02-11T06:56:17;20.40;;;9.27;;
64387;SDS011;50709;52.648;4.764;2023-02-11T06:58:44;22.83;;;10.07;;
64387;SDS011;50709;52.648;4.764;2023-02-11T07:01:11;20.02;;;9.65;;
64387;SDS011;50709;52.648;4.764;2023-02-11T07:03:40;22.27;;;9.20;;
64387;SDS011;50709;52.648;4.764;2023-02-11T07:06:14;20.77;;;8.73;;
64387;SDS011;50709;52.648;4.764;2023-02-11T07:08:45;17.38;;;8.52;;
64387;SDS011;50709;52.648;4.764;2023-02-11T07:11:14;18.73;;;9.43;;
64387;SDS011;50709;52.648;4.764;2023-02-11T07:13:43;19.05;;;8.15;;
64387;SDS011;50709;52.648;4.764;2023-02-11T07:16:31;16.52;;;8.68;;
64387;SDS011;50709;52.648;4.764;2023-02-11T07:19:16;18.85;;;8.00;;
64387;SDS011;50709;52.648;4.764;2023-02-11T07:21:44;20.80;;;9.02;;
64387;SDS011;50709;52.648;4.764;2023-02-11T07:24:09;21.08;;;8.50;;
64387;SDS011;50709;52.648;4.764;2023-02-11T07:26:35;22.85;;;9.07;;
64387;SDS011;50709;52.648;4.764;2023-02-11T07:29:01;18.90;;;8.60;;
64387;SDS011;50709;52.648;4.764;2023-02-11T07:31:27;18.40;;;7.82;;
64387;SDS011;50709;52.648;4.764;2023-02-11T07:33:54;15.80;;;7.88;;
64387;SDS011;50709;52.648;4.764;2023-02-11T07:36:23;16.25;;;7.32;;
64387;SDS011;50709;52.648;4.764;2023-02-11T07:38:48;19.90;;;8.65;;
64387;SDS011;50709;52.648;4.764;2023-02-11T07:41:15;18.30;;;8.45;;
64387;SDS011;50709;52.648;4.764;2023-02-11T07:44:04;18.92;;;8.50;;
64387;SDS011;50709;52.648;4.764;2023-02-11T07:46:30;19.08;;;8.65;;
64387;SDS011;50709;52.648;4.764;2023-02-11T07:48:56;18.95;;;8.45;;
64387;SDS011;50709;52.648;4.764;2023-02-11T07:51:25;14.02;;;7.22;;
64387;SDS011;50709;52.648;4.764;2023-02-11T07:54:14;16.50;;;7.30;;
64387;SDS011;50709;52.648;4.764;2023-02-11T07:56:39;17.08;;;7.32;;
64387;SDS011;50709;52.648;4.764;2023-02-11T07:59:06;15.35;;;7.85;;
64387;SDS011;50709;52.648;4.764;2023-02-11T08:01:52;18.95;;;7.32;;
64387;SDS011;50709;52.648;4.764;2023-02-11T08:04:37;15.18;;;6.97;;
64387;SDS011;50709;52.648;4.764;2023-02-11T08:07:03;13.63;;;7.32;;
64387;SDS011;50709;52.648;4.764;2023-02-11T08:09:29;16.92;;;7.25;;
64387;SDS011;50709;52.648;4.764;2023-02-11T08:11:54;17.77;;;6.95;;
64387;SDS011;50709;52.648;4.764;2023-02-11T08:14:21;13.15;;;6.57;;
64387;SDS011;50709;52.648;4.764;2023-02-11T08:16:49;19.58;;;8.23;;
64387;SDS011;50709;52.648;4.764;2023-02-11T08:19:15;13.18;;;6.80;;
64387;SDS011;50709;52.648;4.764;2023-02-11T08:21:41;12.15;;;6.72;;
64387;SDS011;50709;52.648;4.764;2023-02-11T08:24:07;17.30;;;7.22;;
64387;SDS011;50709;52.648;4.764;2023-02-11T08:26:34;14.65;;;6.82;;
64387;SDS011;50709;52.648;4.764;2023-02-11T08:29:00;21.77;;;10.15;;
64387;SDS011;50709;52.648;4.764;2023-02-11T08:31:32;16.13;;;7.95;;
64387;SDS011;50709;52.648;4.764;2023-02-11T08:34:02;14.20;;;6.85;;
64387;SDS011;50709;52.648;4.764;2023-02-11T08:36:28;17.77;;;7.88;;
64387;SDS011;50709;52.648;4.764;2023-02-11T08:38:58;17.25;;;7.18;;
64387;SDS011;50709;52.648;4.764;2023-02-11T08:41:29;11.82;;;6.18;;
64387;SDS011;50709;52.648;4.764;2023-02-11T08:43:58;17.80;;;8.13;;
64387;SDS011;50709;52.648;4.764;2023-02-11T08:46:24;13.23;;;6.78;;
64387;SDS011;50709;52.648;4.764;2023-02-11T08:48:49;13.85;;;6.43;;
64387;SDS011;50709;52.648;4.764;2023-02-11T08:51:16;19.15;;;7.40;;
64387;SDS011;50709;52.648;4.764;2023-02-11T08:53:47;15.80;;;7.13;;
64387;SDS011;50709;52.648;4.764;2023-02-11T08:56:13;14.55;;;7.30;;
64387;SDS011;50709;52.648;4.764;2023-02-11T08:58:40;13.25;;;5.90;;
64387;SDS011;50709;52.648;4.764;2023-02-11T09:01:09;14.45;;;7.60;;
64387;SDS011;50709;52.648;4.764;2023-02-11T09:03:42;12.35;;;6.88;;
64387;SDS011;50709;52.648;4.764;2023-02-11T09:06:08;15.20;;;6.70;;
64387;SDS011;50709;52.648;4.764;2023-02-11T09:08:35;15.07;;;6.70;;
64387;SDS011;50709;52.648;4.764;2023-02-11T09:11:02;21.20;;;10.77;;
64387;SDS011;50709;52.648;4.764;2023-02-11T09:13:28;18.38;;;7.72;;
64387;SDS011;50709;52.648;4.764;2023-02-11T09:15:54;18.13;;;9.05;;
64387;SDS011;50709;52.648;4.764;2023-02-11T09:18:19;15.90;;;7.85;;
64387;SDS011;50709;52.648;4.764;2023-02-11T09:20:45;16.95;;;8.20;;
64387;SDS011;50709;52.648;4.764;2023-02-11T09:23:10;18.42;;;8.75;;
64387;SDS011;50709;52.648;4.764;2023-02-11T09:25:39;16.95;;;8.10;;
64387;SDS011;50709;52.648;4.764;2023-02-11T09:28:05;17.95;;;8.18;;
64387;SDS011;50709;52.648;4.764;2023-02-11T09:30:31;23.08;;;9.93;;
64387;SDS011;50709;52.648;4.764;2023-02-11T09:32:57;21.30;;;9.32;;
64387;SDS011;50709;52.648;4.764;2023-02-11T09:35:22;18.58;;;9.00;;
64387;SDS011;50709;52.648;4.764;2023-02-11T09:37:48;14.60;;;8.15;;
64387;SDS011;50709;52.648;4.764;2023-02-11T09:40:14;27.25;;;16.63;;
64387;SDS011;50709;52.648;4.764;2023-02-11T09:43:06;17.65;;;8.05;;
64387;SDS011;50709;52.648;4.764;2023-02-11T09:45:45;16.92;;;7.78;;
64387;SDS011;50709;52.648;4.764;2023-02-11T09:50:42;23.70;;;12.35;;
64387;SDS011;50709;52.648;4.764;2023-02-11T09:55:47;23.77;;;12.27;;
64387;SDS011;50709;52.648;4.764;2023-02-11T09:58:27;13.82;;;7.30;;
64387;SDS011;50709;52.648;4.764;2023-02-11T10:11:32;28.13;;;15.45;;
64387;SDS011;50709;52.648;4.764;2023-02-11T10:14:27;15.25;;;9.13;;
64387;SDS011;50709;52.648;4.764;2023-02-11T10:20:03;10.68;;;6.22;;
64387;SDS011;50709;52.648;4.764;2023-02-11T10:22:33;12.27;;;7.88;;
64387;SDS011;50709;52.648;4.764;2023-02-11T10:25:05;16.30;;;6.57;;
64387;SDS011;50709;52.648;4.764;2023-02-11T10:27:44;12.10;;;7.03;;
64387;SDS011;50709;52.648;4.764;2023-02-11T10:30:16;15.20;;;7.50;;
64387;SDS011;50709;52.648;4.764;2023-02-11T10:32:48;12.25;;;6.35;;
64387;SDS011;50709;52.648;4.764;2023-02-11T10:35:20;11.18;;;5.35;;
64387;SDS011;50709;52.648;4.764;2023-02-11T10:37:47;12.05;;;6.07;;
64387;SDS011;50709;52.648;4.764;2023-02-11T10:40:24;13.85;;;6.20;;
64387;SDS011;50709;52.648;4.764;2023-02-11T10:42:52;8.93;;;4.82;;
64387;SDS011;50709;52.648;4.764;2023-02-11T10:48:03;9.77;;;4.95;;
64387;SDS011;50709;52.648;4.764;2023-02-11T10:50:33;9.02;;;4.85;;
64387;SDS011;50709;52.648;4.764;2023-02-11T10:53:10;10.55;;;4.80;;
64387;SDS011;50709;52.648;4.764;2023-02-11T10:55:46;12.07;;;4.75;;
64387;SDS011;50709;52.648;4.764;2023-02-11T10:58:21;13.18;;;6.20;;
64387;SDS011;50709;52.648;4.764;2023-02-11T11:00:50;12.38;;;5.82;;
64387;SDS011;50709;52.648;4.764;2023-02-11T11:03:28;10.95;;;5.20;;
64387;SDS011;50709;52.648;4.764;2023-02-11T11:05:59;10.57;;;4.60;;
64387;SDS011;50709;52.648;4.764;2023-02-11T11:08:48;9.25;;;5.30;;
64387;SDS011;50709;52.648;4.764;2023-02-11T11:11:14;9.85;;;3.97;;
64387;SDS011;50709;52.648;4.764;2023-02-11T11:13:53;13.50;;;4.82;;
64387;SDS011;50709;52.648;4.764;2023-02-11T11:16:27;10.65;;;5.03;;
64387;SDS011;50709;52.648;4.764;2023-02-11T11:21:42;16.70;;;6.05;;
64387;SDS011;50709;52.648;4.764;2023-02-11T11:27:16;10.63;;;5.65;;
64387;SDS011;50709;52.648;4.764;2023-02-11T11:29:45;7.97;;;4.95;;
64387;SDS011;50709;52.648;4.764;2023-02-11T11:32:15;15.75;;;8.85;;
64387;SDS011;50709;52.648;4.764;2023-02-11T11:34:55;11.80;;;4.97;;
64387;SDS011;50709;52.648;4.764;2023-02-11T11:37:31;10.40;;;5.28;;
64387;SDS011;50709;52.648;4.764;2023-02-11T11:40:09;10.52;;;6.07;;
64387;SDS011;50709;52.648;4.764;2023-02-11T11:42:38;13.05;;;4.75;;
64387;SDS011;50709;52.648;4.764;2023-02-11T11:47:46;11.02;;;4.93;;
64387;SDS011;50709;52.648;4.764;2023-02-11T11:56:17;10.82;;;5.10;;
64387;SDS011;50709;52.648;4.764;2023-02-11T11:58:46;9.05;;;4.70;;
64387;SDS011;50709;52.648;4.764;2023-02-11T12:13:04;8.15;;;4.57;;
64387;SDS011;50709;52.648;4.764;2023-02-11T12:15:42;8.13;;;4.07;;
64387;SDS011;50709;52.648;4.764;2023-02-11T12:26:10;8.82;;;4.00;;
64387;SDS011;50709;52.648;4.764;2023-02-11T12:40:10;9.43;;;4.72;;
64387;SDS011;50709;52.648;4.764;2023-02-11T12:42:50;11.95;;;5.50;;
64387;SDS011;50709;52.648;4.764;2023-02-11T12:48:55;10.00;;;5.30;;
64387;SDS011;50709;52.648;4.764;2023-02-11T12:54:59;8.80;;;4.20;;
64387;SDS011;50709;52.648;4.764;2023-02-11T12:57:31;9.82;;;4.70;;
64387;SDS011;50709;52.648;4.764;2023-02-11T13:05:22;8.88;;;4.28;;
64387;SDS011;50709;52.648;4.764;2023-02-11T13:07:58;6.32;;;4.00;;
64387;SDS011;50709;52.648;4.764;2023-02-11T13:10:33;11.40;;;4.93;;
64387;SDS011;50709;52.648;4.764;2023-02-11T13:13:04;7.63;;;4.40;;
64387;SDS011;50709;52.648;4.764;2023-02-11T13:15:58;7.70;;;4.63;;
64387;SDS011;50709;52.648;4.764;2023-02-11T13:32:27;7.80;;;4.13;;
64387;SDS011;50709;52.648;4.764;2023-02-11T13:35:31;10.98;;;5.15;;
64387;SDS011;50709;52.648;4.764;2023-02-11T13:37:59;12.18;;;4.70;;
64387;SDS011;50709;52.648;4.764;2023-02-11T13:40:36;8.45;;;3.83;;
64387;SDS011;50709;52.648;4.764;2023-02-11T13:43:04;8.23;;;4.25;;
64387;SDS011;50709;52.648;4.764;2023-02-11T13:45:44;8.38;;;4.72;;
64387;SDS011;50709;52.648;4.764;2023-02-11T13:48:16;7.05;;;4.40;;
64387;SDS011;50709;52.648;4.764;2023-02-11T13:50:46;11.07;;;4.32;;
64387;SDS011;50709;52.648;4.764;2023-02-11T13:53:13;10.10;;;4.65;;
64387;SDS011;50709;52.648;4.764;2023-02-11T13:55:41;10.55;;;4.10;;
64387;SDS011;50709;52.648;4.764;2023-02-11T14:14:00;9.57;;;4.07;;
64387;SDS011;50709;52.648;4.764;2023-02-11T14:16:26;10.20;;;4.38;;
64387;SDS011;50709;52.648;4.764;2023-02-11T14:29:16;9.63;;;3.70;;
64387;SDS011;50709;52.648;4.764;2023-02-11T14:37:21;7.70;;;4.25;;
64387;SDS011;50709;52.648;4.764;2023-02-11T14:40:34;9.55;;;4.03;;
64387;SDS011;50709;52.648;4.764;2023-02-11T14:43:23;7.63;;;3.92;;
64387;SDS011;50709;52.648;4.764;2023-02-11T14:45:52;6.28;;;3.60;;
64387;SDS011;50709;52.648;4.764;2023-02-11T14:48:20;8.02;;;3.83;;
64387;SDS011;50709;52.648;4.764;2023-02-11T14:50:52;8.38;;;3.92;;
64387;SDS011;50709;52.648;4.764;2023-02-11T14:53:23;9.30;;;4.15;;
64387;SDS011;50709;52.648;4.764;2023-02-11T14:55:51;10.63;;;3.88;;
64387;SDS011;50709;52.648;4.764;2023-02-11T14:58:31;9.40;;;4.00;;
64387;SDS011;50709;52.648;4.764;2023-02-11T15:00:58;8.88;;;3.58;;
64387;SDS011;50709;52.648;4.764;2023-02-11T15:05:58;7.47;;;3.28;;
64387;SDS011;50709;52.648;4.764;2023-02-11T15:08:27;7.70;;;3.63;;
64387;SDS011;50709;52.648;4.764;2023-02-11T15:10:55;8.40;;;4.10;;
64387;SDS011;50709;52.648;4.764;2023-02-11T15:13:22;6.57;;;3.75;;
64387;SDS011;50709;52.648;4.764;2023-02-11T15:15:57;6.55;;;3.20;;
64387;SDS011;50709;52.648;4.764;2023-02-11T15:18:28;9.85;;;4.13;;
64387;SDS011;50709;52.648;4.764;2023-02-11T15:21:03;6.63;;;3.28;;
64387;SDS011;50709;52.648;4.764;2023-02-11T15:23:29;7.10;;;3.15;;
64387;SDS011;50709;52.648;4.764;2023-02-11T15:25:55;11.20;;;3.90;;
64387;SDS011;50709;52.648;4.764;2023-02-11T15:28:22;8.48;;;3.35;;
64387;SDS011;50709;52.648;4.764;2023-02-11T15:31:02;6.13;;;3.50;;
64387;SDS011;50709;52.648;4.764;2023-02-11T15:33:29;8.80;;;3.55;;
64387;SDS011;50709;52.648;4.764;2023-02-11T15:35:56;9.20;;;3.55;;
64387;SDS011;50709;52.648;4.764;2023-02-11T15:38:23;9.95;;;3.78;;
64387;SDS011;50709;52.648;4.764;2023-02-11T15:40:59;6.55;;;3.50;;
64387;SDS011;50709;52.648;4.764;2023-02-11T15:46:18;11.27;;;3.58;;
64387;SDS011;50709;52.648;4.764;2023-02-11T15:48:46;6.93;;;3.60;;
64387;SDS011;50709;52.648;4.764;2023-02-11T15:51:18;9.52;;;3.90;;
64387;SDS011;50709;52.648;4.764;2023-02-11T15:53:47;9.23;;;3.90;;
64387;SDS011;50709;52.648;4.764;2023-02-11T15:56:24;11.95;;;4.13;;
64387;SDS011;50709;52.648;4.764;2023-02-11T15:58:58;6.57;;;3.40;;
64387;SDS011;50709;52.648;4.764;2023-02-11T16:01:34;10.68;;;3.58;;
64387;SDS011;50709;52.648;4.764;2023-02-11T16:04:01;9.13;;;3.67;;
64387;SDS011;50709;52.648;4.764;2023-02-11T16:06:36;10.07;;;3.80;;
64387;SDS011;50709;52.648;4.764;2023-02-11T16:11:56;10.55;;;4.53;;
64387;SDS011;50709;52.648;4.764;2023-02-11T16:14:27;9.48;;;3.60;;
64387;SDS011;50709;52.648;4.764;2023-02-11T16:17:00;9.73;;;4.38;;
64387;SDS011;50709;52.648;4.764;2023-02-11T16:19:29;7.70;;;3.60;;
64387;SDS011;50709;52.648;4.764;2023-02-11T16:21:57;8.25;;;3.70;;
64387;SDS011;50709;52.648;4.764;2023-02-11T16:24:29;8.07;;;3.50;;
64387;SDS011;50709;52.648;4.764;2023-02-11T16:26:58;9.23;;;3.70;;
64387;SDS011;50709;52.648;4.764;2023-02-11T16:29:35;11.00;;;4.07;;
64387;SDS011;50709;52.648;4.764;2023-02-11T16:32:05;6.53;;;3.33;;
64387;SDS011;50709;52.648;4.764;2023-02-11T16:34:39;11.65;;;4.18;;
64387;SDS011;50709;52.648;4.764;2023-02-11T16:37:05;10.55;;;4.07;;
64387;SDS011;50709;52.648;4.764;2023-02-11T16:39:30;12.93;;;3.75;;
64387;SDS011;50709;52.648;4.764;2023-02-11T16:41:56;7.60;;;3.50;;
64387;SDS011;50709;52.648;4.764;2023-02-11T16:44:22;6.07;;;3.45;;
64387;SDS011;50709;52.648;4.764;2023-02-11T16:46:48;7.97;;;3.65;;
64387;SDS011;50709;52.648;4.764;2023-02-11T16:54:16;4.78;;;3.00;;
64387;SDS011;50709;52.648;4.764;2023-02-11T16:56:43;9.90;;;3.70;;
64387;SDS011;50709;52.648;4.764;2023-02-11T16:59:08;11.18;;;3.78;;
64387;SDS011;50709;52.648;4.764;2023-02-11T17:01:34;10.25;;;4.10;;
64387;SDS011;50709;52.648;4.764;2023-02-11T17:04:02;12.13;;;4.15;;
64387;SDS011;50709;52.648;4.764;2023-02-11T17:06:28;7.78;;;4.00;;
64387;SDS011;50709;52.648;4.764;2023-02-11T17:08:53;8.13;;;4.20;;
64387;SDS011;50709;52.648;4.764;2023-02-11T17:11:19;10.57;;;4.03;;
64387;SDS011;50709;52.648;4.764;2023-02-11T17:13:44;10.27;;;4.07;;
64387;SDS011;50709;52.648;4.764;2023-02-11T17:16:15;10.13;;;4.57;;
64387;SDS011;50709;52.648;4.764;2023-02-11T17:18:45;10.55;;;4.10;;
64387;SDS011;50709;52.648;4.764;2023-02-11T17:21:11;10.57;;;4.10;;
64387;SDS011;50709;52.648;4.764;2023-02-11T17:23:37;8.63;;;4.38;;
64387;SDS011;50709;52.648;4.764;2023-02-11T17:26:03;10.35;;;4.20;;
64387;SDS011;50709;52.648;4.764;2023-02-11T17:28:29;12.60;;;4.30;;
64387;SDS011;50709;52.648;4.764;2023-02-11T17:30:54;9.98;;;4.07;;
64387;SDS011;50709;52.648;4.764;2023-02-11T17:33:20;9.60;;;4.35;;
64387;SDS011;50709;52.648;4.764;2023-02-11T17:35:45;8.07;;;4.22;;
64387;SDS011;50709;52.648;4.764;2023-02-11T17:38:11;10.88;;;4.40;;
64387;SDS011;50709;52.648;4.764;2023-02-11T17:40:36;11.50;;;4.63;;
64387;SDS011;50709;52.648;4.764;2023-02-11T17:43:02;11.02;;;4.60;;